Terminal Aerodrome Forecast
Issued by NWS

Home | Current Version | Previous Version | Text Only | Print | Product List | Glossary On
Versions: 1 2 3 4 5 6 7 8 9 10 11 12 13 14 15 16 17 18 19 20 21 22 23 24 25
724
FTUS41 KOKX 092033 AAA
TAFGON
TAF AMD
KGON 092033Z 0921/1018 VRB04KT P6SM OVC025
      TEMPO 0921/0923 SCT015 BKN035
     FM100700 VRB04KT 1SM -SN BR BKN006 OVC012
      TEMPO 1011/1015 1/2SM SN OVC005
     FM101700 VRB04KT P6SM SCT007 BKN020=

USA.gov is the U.S. government's official web portal to all federal, state and local government web resources and services.